Flight Track Log - Related Links

Times and Time Zones

All times are in EDT time to prevent confusion due to time zone crossing. See the ASQ5963 flight status page for this flight to view local times or setup timezone preferences in your user account.

Time Position Orientation Groundspeed Altitude Reporting Facility
EDT Latitude Longitude Course Direction KTS MPH feet Rate Location/Type
Fri 06:08:05 AM 42.7694 -73.8089 202° Southwest 174 200 1,100  Level Boston Center
Fri 06:08:22 AM 42.7839 -73.8064 North 172 198 1,900 2,021 Climbing Boston Center
Fri 06:09:40 AM 42.7872 -73.8800 274° West 213 245 4,300 2,130 Climbing Boston Center
Fri 06:10:00 AM 42.5588 -73.8369 198° South  Level Estimated
Fri 06:10:40 AM 42.7161 -73.9039 194° South 208 239 6,800  Level Boston Center
Fri 06:11:00 AM 42.4995 -73.8698 202° Southwest  Level FlightAware Approximate
Fri 06:11:40 AM 42.6428 -73.9275 193° South 231 266 9,200  Level Boston Center
Fri 06:12:00 AM 42.4402 -73.9026 202° Southwest  Level FlightAware Approximate
Fri 06:12:39 AM 42.5697 -73.9483 192° South 269 310 11,500  Level Boston Center
Fri 06:13:00 AM 42.3810 -73.9354 202° Southwest  Level FlightAware Approximate
Fri 06:13:41 AM 42.4944 -73.9692 192° South 277 319 13,000  Level Boston Center
Fri 06:14:40 AM 42.4064 -74.0006 195° South 310 357 13,700 1,017 Climbing Boston Center
Fri 06:15:39 AM 42.3142 -74.0292 193° South 329 379 15,000 1,082 Climbing Boston Center
Fri 06:16:42 AM 42.2222 -74.0606 194° South 340 391 15,900 500 Climbing Boston Center
Fri 06:17:39 AM 42.1217 -74.0917 193° South 350 403 16,000 50 Climbing Boston Center
Fri 06:18:42 AM 42.0253 -74.1253 195° South 364 419 16,000 -149 Level Boston Center
Fri 06:19:40 AM 41.9414 -74.1650 199° South 358 412 15,700 -1,169 Descending Boston Center
Fri 06:20:40 AM 41.8342 -74.2094 197° South 364 419 13,700 -1,934 Descending Boston Center
Fri 06:21:41 AM 41.7503 -74.2461 198° South 364 419 11,800 -1,525 Descending Boston Center
Fri 06:22:42 AM 41.6517 -74.2878 198° South 358 412 10,600 -1,373 Descending Boston Center
Fri 06:23:39 AM 41.5867 -74.3164 198° South 309 356 9,100 -1,729 Descending Boston Center
Fri 06:24:40 AM 41.5069 -74.3500 198° South 275 316 7,200 -736 Descending Boston Center
Fri 06:26:22 AM 41.3833 -74.4000 197° South 264 304 7,100 -74 Descending New York TRACON
Fri 06:27:22 AM 41.3167 -74.4333 201° Southwest 270 311 7,000  Descending New York TRACON
Fri 06:28:22 AM 41.2500 -74.4667 201° Southwest 275 316 7,100  Climbing New York TRACON
Fri 06:29:16 AM 41.1833 -74.5000 201° Southwest 273 314 7,000  Descending New York TRACON
Fri 06:30:11 AM 41.1167 -74.5167 191° South 264 304 7,100 -220 Climbing New York TRACON
Fri 06:31:05 AM 41.0500 -74.5000 169° South 289 333 6,600 -895 Descending New York TRACON
Fri 06:32:05 AM 41.0667 -74.4000 78° East 278 320 5,400 -750 Descending New York TRACON
Fri 06:33:05 AM 41.0667 -74.3167 90° East 246 283 5,100 -476 Descending New York TRACON
Fri 06:34:11 AM 41.0500 -74.2167 102° East 246 283 4,400 -550 Descending New York TRACON
Fri 06:35:05 AM 41.0167 -74.1667 131° Southeast 239 275 4,000 -158 Descending New York TRACON
Fri 06:36:05 AM 40.9667 -74.1333 153° Southeast 238 274 4,100 -368 Climbing New York TRACON
Fri 06:36:59 AM 40.9000 -74.1000 159° South 237 273 3,300 -611 Descending New York TRACON
Fri 06:37:53 AM 40.8500 -74.1000 180° South 235 270 3,000 -333 Descending New York TRACON
Fri 06:38:47 AM 40.7833 -74.1000 180° South 231 266 2,700 -1,000 Descending New York TRACON
Fri 06:39:47 AM 40.7333 -74.1333 207° Southwest 191 220 1,100 -1,600 Descending New York TRACON

Login

Don't have an account? Register now (free) for customized features, flight alerts, and more!